Time;durP1;ratioP1;P1;durP2;ratioP2;P2;SDS_P1;SDS_P2;PMS_P1;PMS_P2;Temp;Humidity;BMP_temperature;BMP_pressure;BME280_temperature;BME280_humidity;BME280_pressure;Samples;Min_cycle;Max_cycle;Signal;HPM_P1;HPM_P2
2023/11/28 00:01:31;;;;;;;4.43;3.38;;;6.30;99.90;;;;;;5073391;28;20040;-66
2023/11/28 00:03:58;;;;;;;8.85;3.72;;;6.30;99.90;;;;;;5073225;28;20068;-66
2023/11/28 00:06:25;;;;;;;6.70;3.97;;;6.30;99.90;;;;;;5072147;28;20040;-66
2023/11/28 00:08:52;;;;;;;6.15;3.60;;;6.30;99.90;;;;;;5071923;28;20072;-66
2023/11/28 00:11:19;;;;;;;5.15;3.10;;;6.30;99.90;;;;;;5073411;28;20044;-65
2023/11/28 00:13:46;;;;;;;7.28;3.60;;;6.30;99.90;;;;;;5073446;28;20119;-66
2023/11/28 00:16:13;;;;;;;8.65;3.75;;;6.30;99.90;;;;;;5073281;28;20546;-66
2023/11/28 00:18:40;;;;;;;8.60;3.30;;;6.30;99.90;;;;;;5073140;28;20433;-66
2023/11/28 00:21:07;;;;;;;6.50;3.28;;;6.30;99.90;;;;;;5073557;28;20040;-66
2023/11/28 00:23:34;;;;;;;5.38;3.08;;;6.30;99.90;;;;;;5073246;28;20043;-66
2023/11/28 00:26:00;;;;;;;9.93;3.60;;;6.20;99.90;;;;;;5073557;28;20139;-66
2023/11/28 00:28:27;;;;;;;4.75;3.20;;;6.30;99.90;;;;;;5073092;28;20101;-66
2023/11/28 00:30:54;;;;;;;5.15;2.90;;;6.30;99.90;;;;;;5073464;28;20037;-66
2023/11/28 00:33:21;;;;;;;7.65;3.05;;;6.30;99.90;;;;;;5073715;28;20040;-66
2023/11/28 00:35:48;;;;;;;5.45;3.20;;;6.20;99.90;;;;;;5055327;28;20047;-66
2023/11/28 00:38:15;;;;;;;5.88;3.40;;;6.20;99.90;;;;;;5072901;28;20040;-66
2023/11/28 00:40:41;;;;;;;5.88;3.03;;;6.20;99.90;;;;;;5071626;28;20048;-65
2023/11/28 00:43:08;;;;;;;6.30;2.80;;;6.20;99.90;;;;;;5072425;28;20064;-66
2023/11/28 00:45:35;;;;;;;5.03;2.42;;;6.30;99.90;;;;;;5073614;28;20055;-66
2023/11/28 00:48:03;;;;;;;7.25;2.70;;;6.30;99.90;;;;;;5071708;28;20449;-66
2023/11/28 00:50:29;;;;;;;4.82;2.40;;;6.20;99.90;;;;;;5073282;28;20438;-66
2023/11/28 00:52:56;;;;;;;6.38;2.85;;;6.30;99.90;;;;;;5073535;28;20079;-65
2023/11/28 00:55:24;;;;;;;6.25;2.78;;;6.30;99.90;;;;;;5073021;28;20041;-66
2023/11/28 00:57:51;;;;;;;6.90;2.55;;;6.20;99.90;;;;;;5071875;28;20531;-65
2023/11/28 01:00:18;;;;;;;6.68;2.55;;;6.20;99.90;;;;;;5071779;28;20389;-65
2023/11/28 01:02:45;;;;;;;4.75;2.50;;;6.20;99.90;;;;;;5073565;28;20478;-66
2023/11/28 01:05:12;;;;;;;6.10;2.58;;;6.20;99.90;;;;;;5073047;28;20381;-65
2023/11/28 01:07:39;;;;;;;5.07;2.50;;;6.20;99.90;;;;;;5071574;28;20051;-65
2023/11/28 01:10:07;;;;;;;5.45;2.70;;;6.10;99.90;;;;;;5073317;28;20037;-66
2023/11/28 01:12:34;;;;;;;7.13;2.70;;;6.10;99.90;;;;;;5075831;28;20515;-66
2023/11/28 01:15:01;;;;;;;7.47;2.50;;;6.10;99.90;;;;;;5076051;28;20107;-67
2023/11/28 01:17:27;;;;;;;4.80;2.35;;;6.10;99.90;;;;;;5076802;28;20060;-66
2023/11/28 01:19:54;;;;;;;6.85;2.53;;;6.10;99.90;;;;;;5076827;28;20519;-68
2023/11/28 01:22:21;;;;;;;8.32;2.70;;;6.10;99.90;;;;;;5075739;28;20466;-67
2023/11/28 01:24:48;;;;;;;7.20;2.55;;;6.10;99.90;;;;;;5075874;28;20127;-67
2023/11/28 01:27:15;;;;;;;3.83;2.53;;;6.10;99.90;;;;;;5079584;28;20093;-67
2023/11/28 01:29:42;;;;;;;8.38;2.45;;;6.10;99.90;;;;;;5096078;28;20036;-67
2023/11/28 01:32:11;;;;;;;5.45;2.25;;;6.10;99.90;;;;;;5095739;28;20040;-67
2023/11/28 01:34:38;;;;;;;6.75;2.50;;;6.10;99.90;;;;;;5095666;28;20040;-67
2023/11/28 01:37:05;;;;;;;5.10;2.40;;;6.10;99.90;;;;;;5095304;28;20078;-66
2023/11/28 01:39:33;;;;;;;8.20;2.30;;;6.10;99.90;;;;;;5096398;28;20048;-67
2023/11/28 01:42:00;;;;;;;8.05;2.08;;;6.10;99.90;;;;;;5097297;28;20046;-66
2023/11/28 01:44:27;;;;;;;5.57;2.80;;;6.10;99.90;;;;;;5095611;28;20491;-67
2023/11/28 01:46:54;;;;;;;4.45;2.50;;;6.00;99.90;;;;;;5096569;28;20051;-67
2023/11/28 01:49:21;;;;;;;5.10;3.10;;;6.10;99.90;;;;;;5096662;28;20043;-67
2023/11/28 01:51:48;;;;;;;5.28;2.78;;;6.00;99.90;;;;;;5095753;28;20032;-67
2023/11/28 01:54:14;;;;;;;6.35;2.92;;;6.00;99.90;;;;;;5096848;28;20041;-67
2023/11/28 01:56:41;;;;;;;5.10;2.17;;;6.00;99.90;;;;;;5095515;28;20388;-67
2023/11/28 01:59:08;;;;;;;6.35;2.40;;;6.00;99.90;;;;;;5095649;28;20036;-67
2023/11/28 02:01:35;;;;;;;4.80;2.40;;;6.00;99.90;;;;;;5096635;28;20437;-66
2023/11/28 02:04:02;;;;;;;11.35;2.72;;;6.00;99.90;;;;;;5096796;28;20036;-67
2023/11/28 02:06:29;;;;;;;5.53;3.03;;;6.00;99.90;;;;;;5095111;28;20158;-66
2023/11/28 02:08:56;;;;;;;5.72;2.70;;;6.00;99.90;;;;;;5095272;28;20036;-67
2023/11/28 02:11:23;;;;;;;9.98;2.85;;;6.00;99.90;;;;;;5096381;28;20040;-67
2023/11/28 02:13:49;;;;;;;5.85;2.85;;;6.00;99.90;;;;;;5095971;28;20082;-67
2023/11/28 02:16:16;;;;;;;7.88;2.85;;;6.00;99.90;;;;;;5094884;28;20044;-67
2023/11/28 02:18:44;;;;;;;4.40;2.67;;;6.00;99.90;;;;;;5094451;28;20040;-66
2023/11/28 02:21:10;;;;;;;8.93;3.10;;;6.00;99.90;;;;;;5094291;28;20079;-66
2023/11/28 02:23:37;;;;;;;6.13;2.72;;;6.00;99.90;;;;;;5095914;28;20040;-67
2023/11/28 02:26:05;;;;;;;5.47;2.35;;;6.00;99.90;;;;;;5096073;28;20040;-67
2023/11/28 02:28:33;;;;;;;6.97;2.45;;;6.00;99.90;;;;;;5095884;28;20438;-67
2023/11/28 02:31:00;;;;;;;8.60;2.50;;;6.00;99.90;;;;;;5095713;28;20100;-66
2023/11/28 02:33:27;;;;;;;7.43;2.22;;;6.00;99.90;;;;;;5094644;28;20040;-67
2023/11/28 02:35:54;;;;;;;8.68;2.60;;;5.90;99.90;;;;;;5096150;28;20385;-67
2023/11/28 02:38:21;;;;;;;6.30;2.60;;;5.90;99.90;;;;;;5095781;28;20040;-67
2023/11/28 02:40:48;;;;;;;6.75;2.65;;;5.90;99.90;;;;;;5095524;28;20044;-67
2023/11/28 02:43:15;;;;;;;8.82;3.10;;;5.90;99.90;;;;;;5093925;28;20139;-67
2023/11/28 02:45:42;;;;;;;5.13;2.35;;;5.90;99.90;;;;;;5094089;28;20139;-67
2023/11/28 02:48:08;;;;;;;7.38;2.70;;;5.90;99.90;;;;;;5094331;28;20415;-67
2023/11/28 02:50:37;;;;;;;8.52;3.25;;;5.90;99.90;;;;;;5095804;28;20040;-66
2023/11/28 02:53:04;;;;;;;9.32;2.80;;;5.90;99.90;;;;;;5094378;28;20050;-67
2023/11/28 02:55:31;;;;;;;7.20;2.60;;;5.90;99.90;;;;;;5094051;28;20366;-67
2023/11/28 02:57:57;;;;;;;6.72;3.15;;;5.80;99.90;;;;;;5094939;28;20439;-67
2023/11/28 03:00:24;;;;;;;6.78;3.10;;;5.80;99.90;;;;;;5095342;28;20089;-67
2023/11/28 03:02:51;;;;;;;7.10;3.17;;;5.80;99.90;;;;;;5094282;28;20040;-67
2023/11/28 03:05:18;;;;;;;5.63;2.92;;;5.80;99.90;;;;;;5095315;28;20508;-67
2023/11/28 03:07:45;;;;;;;6.65;3.00;;;5.80;99.90;;;;;;5095877;28;20044;-67
2023/11/28 03:10:12;;;;;;;8.80;2.92;;;5.70;99.90;;;;;;5093518;28;20493;-67
2023/11/28 03:12:39;;;;;;;6.55;2.70;;;5.70;99.90;;;;;;5095197;28;20044;-67
2023/11/28 03:15:05;;;;;;;8.90;3.40;;;5.70;99.90;;;;;;5094701;28;20078;-67
2023/11/28 03:17:32;;;;;;;6.40;3.05;;;5.70;99.90;;;;;;5094055;28;20043;-67
2023/11/28 03:19:59;;;;;;;9.23;3.83;;;5.70;99.90;;;;;;5094868;28;20149;-67
2023/11/28 03:22:26;;;;;;;12.52;3.20;;;5.70;99.90;;;;;;5094727;28;20120;-67
2023/11/28 03:24:53;;;;;;;8.38;3.15;;;5.60;99.90;;;;;;5094768;28;20039;-67
2023/11/28 03:27:20;;;;;;;8.23;3.00;;;5.60;99.90;;;;;;5094713;28;20089;-67
2023/11/28 03:29:47;;;;;;;6.63;2.58;;;5.60;99.90;;;;;;5094824;28;20036;-67
2023/11/28 03:32:14;;;;;;;6.05;2.63;;;5.50;99.90;;;;;;5093664;28;20050;-67
2023/11/28 03:34:41;;;;;;;6.05;2.45;;;5.50;99.90;;;;;;5076592;28;20047;-67
2023/11/28 03:37:08;;;;;;;6.65;2.88;;;5.40;99.90;;;;;;5092988;28;20532;-67
2023/11/28 03:39:35;;;;;;;9.13;3.33;;;5.40;99.90;;;;;;5094184;28;20044;-67
2023/11/28 03:42:02;;;;;;;10.77;3.55;;;5.40;99.90;;;;;;5094709;28;20453;-67
2023/11/28 03:44:29;;;;;;;7.82;3.28;;;5.30;99.90;;;;;;5094204;28;20104;-67
2023/11/28 03:46:56;;;;;;;8.77;3.08;;;5.30;99.90;;;;;;5093608;28;20040;-67
2023/11/28 03:49:23;;;;;;;10.60;3.03;;;5.30;99.90;;;;;;5093041;28;20109;-67
2023/11/28 03:51:50;;;;;;;10.32;3.40;;;5.20;99.90;;;;;;5093774;28;20067;-67
2023/11/28 03:54:17;;;;;;;8.95;2.85;;;5.20;99.90;;;;;;5092877;28;20048;-67
2023/11/28 03:56:44;;;;;;;8.85;3.13;;;5.10;99.90;;;;;;5094471;28;20044;-67
2023/11/28 03:59:11;;;;;;;10.65;3.38;;;5.10;99.90;;;;;;5092874;28;20040;-67
2023/11/28 04:01:38;;;;;;;8.68;3.58;;;5.10;99.90;;;;;;5094331;28;20036;-67
2023/11/28 04:04:05;;;;;;;10.88;2.60;;;5.10;99.90;;;;;;5093225;28;20068;-67
2023/11/28 04:06:31;;;;;;;8.95;3.08;;;5.00;99.90;;;;;;5092705;28;20554;-67
2023/11/28 04:08:59;;;;;;;7.22;2.47;;;5.00;99.90;;;;;;5092697;28;20381;-67
2023/11/28 04:11:25;;;;;;;8.27;2.90;;;5.00;99.90;;;;;;5092640;28;20519;-67
2023/11/28 04:13:53;;;;;;;6.72;2.85;;;5.00;99.90;;;;;;5092898;28;20086;-67
2023/11/28 04:16:20;;;;;;;7.75;2.70;;;5.00;99.90;;;;;;5092463;28;20051;-67
2023/11/28 04:18:47;;;;;;;9.95;2.70;;;4.90;99.90;;;;;;5094259;28;20039;-67
2023/11/28 04:21:13;;;;;;;12.82;2.75;;;4.90;99.90;;;;;;5092597;28;20131;-67
2023/11/28 04:23:40;;;;;;;8.05;2.75;;;4.90;99.90;;;;;;5092796;28;20117;-67
2023/11/28 04:26:07;;;;;;;6.30;2.70;;;4.90;99.90;;;;;;5092711;28;20089;-67
2023/11/28 04:28:34;;;;;;;11.20;3.17;;;4.90;99.90;;;;;;5092134;28;20455;-67
2023/11/28 04:31:03;;;;;;;6.55;2.80;;;4.80;99.90;;;;;;5092677;28;20043;-67
2023/11/28 04:33:30;;;;;;;7.80;2.85;;;4.80;99.90;;;;;;5075563;28;20044;-67
2023/11/28 04:35:59;;;;;;;7.65;2.70;;;4.80;99.90;;;;;;5075879;28;20105;-67
2023/11/28 04:38:26;;;;;;;8.98;2.83;;;4.80;99.90;;;;;;5092293;28;20079;-67
2023/11/28 04:40:53;;;;;;;7.35;2.60;;;4.80;99.90;;;;;;5092215;28;20040;-67
2023/11/28 04:43:20;;;;;;;12.95;4.43;;;4.80;99.90;;;;;;5092041;28;20489;-67
2023/11/28 04:45:47;;;;;;;7.47;3.10;;;4.70;99.90;;;;;;5091605;28;20127;-67
2023/11/28 04:48:13;;;;;;;9.07;2.90;;;4.70;99.90;;;;;;5091843;28;20147;-67
2023/11/28 04:50:41;;;;;;;9.63;2.88;;;4.70;99.90;;;;;;5092298;28;20067;-67
2023/11/28 04:53:08;;;;;;;8.57;2.33;;;4.70;99.90;;;;;;5092274;28;20404;-67
2023/11/28 04:55:35;;;;;;;9.05;2.60;;;4.70;99.90;;;;;;5092133;28;20520;-67
2023/11/28 04:58:02;;;;;;;8.77;2.67;;;4.60;99.90;;;;;;5092374;28;20037;-67
2023/11/28 05:00:28;;;;;;;9.45;3.03;;;4.60;99.90;;;;;;5092072;28;20082;-67
2023/11/28 05:02:55;;;;;;;8.52;3.20;;;4.60;99.90;;;;;;5092617;28;20115;-67
2023/11/28 05:05:22;;;;;;;11.65;2.60;;;4.60;99.90;;;;;;5093267;28;20094;-67
2023/11/28 05:07:50;;;;;;;6.00;2.70;;;4.60;99.90;;;;;;5091858;28;20044;-67
2023/11/28 05:10:16;;;;;;;8.35;2.97;;;4.60;99.90;;;;;;5091926;28;20099;-67
2023/11/28 05:12:43;;;;;;;9.00;3.22;;;4.50;99.90;;;;;;5093541;28;20052;-67
2023/11/28 05:15:10;;;;;;;9.40;2.80;;;4.50;99.90;;;;;;5091798;28;20032;-67
2023/11/28 05:17:37;;;;;;;8.57;2.40;;;4.50;99.90;;;;;;5091497;28;20401;-66
2023/11/28 05:20:04;;;;;;;9.45;2.45;;;4.50;99.90;;;;;;5091889;28;20040;-66
2023/11/28 05:22:31;;;;;;;12.15;3.10;;;4.50;99.90;;;;;;5091661;28;20374;-66
2023/11/28 05:24:59;;;;;;;6.65;2.45;;;4.50;99.90;;;;;;5091818;28;20097;-72
2023/11/28 05:27:25;;;;;;;6.32;2.10;;;4.50;99.90;;;;;;5092191;28;20048;-71
2023/11/28 05:29:52;;;;;;;7.28;2.85;;;4.50;99.90;;;;;;5093218;28;20477;-71
2023/11/28 05:32:19;;;;;;;10.23;2.55;;;4.50;99.90;;;;;;5092239;28;20388;-71
2023/11/28 05:34:46;;;;;;;6.22;2.78;;;4.40;99.90;;;;;;5092924;28;20047;-71
2023/11/28 05:37:13;;;;;;;10.45;2.55;;;4.50;99.90;;;;;;5092557;28;20442;-71
2023/11/28 05:39:40;;;;;;;9.05;2.70;;;4.40;99.90;;;;;;5074716;28;20174;-71
2023/11/28 05:42:06;;;;;;;12.90;3.45;;;4.40;99.90;;;;;;5091950;28;20094;-70
2023/11/28 05:44:33;;;;;;;8.98;2.58;;;4.40;99.90;;;;;;5091680;28;20036;-72
2023/11/28 05:47:00;;;;;;;11.20;2.80;;;4.40;99.90;;;;;;5093143;28;20123;-66
2023/11/28 05:49:27;;;;;;;10.07;2.67;;;4.30;99.90;;;;;;5091749;28;20048;-65
2023/11/28 05:51:54;;;;;;;8.55;2.65;;;4.30;99.90;;;;;;5092094;28;20101;-66
2023/11/28 05:54:23;;;;;;;6.65;2.40;;;4.30;99.90;;;;;;5091982;28;20086;-65
2023/11/28 05:56:49;;;;;;;12.57;3.00;;;4.30;99.90;;;;;;5092631;28;20048;-66
2023/11/28 05:59:16;;;;;;;9.45;3.20;;;4.30;99.90;;;;;;5094967;28;20540;-65
2023/11/28 06:01:43;;;;;;;11.18;3.47;;;4.30;99.90;;;;;;5095409;28;20044;-65
2023/11/28 06:04:10;;;;;;;6.38;2.60;;;4.30;99.90;;;;;;5095172;28;20036;-65
2023/11/28 06:06:38;;;;;;;8.88;2.65;;;4.30;99.90;;;;;;5094917;28;20044;-65
2023/11/28 06:09:04;;;;;;;10.48;2.60;;;4.30;99.90;;;;;;5095822;28;20040;-65
2023/11/28 06:11:31;;;;;;;10.43;3.05;;;4.20;99.90;;;;;;5095035;28;20040;-66
2023/11/28 06:13:58;;;;;;;11.80;3.40;;;4.30;99.90;;;;;;5094875;28;20066;-66
2023/11/28 06:16:27;;;;;;;9.57;3.35;;;4.20;99.90;;;;;;5078395;28;20032;-66
2023/11/28 06:18:54;;;;;;;7.93;2.70;;;4.20;99.90;;;;;;5095910;28;20123;-67
2023/11/28 06:21:21;;;;;;;8.32;2.92;;;4.20;99.90;;;;;;5094946;28;20089;-67
2023/11/28 06:23:49;;;;;;;9.15;3.00;;;4.20;99.90;;;;;;5077945;28;20044;-67
2023/11/28 06:26:16;;;;;;;8.95;3.00;;;4.20;99.90;;;;;;5096304;28;20130;-67
2023/11/28 06:28:43;;;;;;;9.38;2.90;;;4.10;99.90;;;;;;5094568;28;20125;-67
2023/11/28 06:31:10;;;;;;;9.50;3.33;;;4.10;99.90;;;;;;5096141;28;20128;-67
2023/11/28 06:33:37;;;;;;;8.45;2.85;;;4.10;99.90;;;;;;5096131;28;20040;-67
2023/11/28 06:36:04;;;;;;;10.13;3.03;;;4.10;99.90;;;;;;5094794;28;20071;-67
2023/11/28 06:38:31;;;;;;;12.30;3.22;;;4.10;99.90;;;;;;5096198;28;20143;-67
2023/11/28 06:40:58;;;;;;;10.02;3.10;;;4.10;99.90;;;;;;5095799;28;20039;-67
2023/11/28 06:43:25;;;;;;;9.85;3.20;;;4.10;99.90;;;;;;5094236;28;20481;-66
2023/11/28 06:45:58;;;;;;;8.05;3.15;;;4.10;99.90;;;;;;5095775;28;20044;-68
2023/11/28 06:48:25;;;;;;;8.20;3.15;;;4.10;99.90;;;;;;5095896;28;20048;-68
2023/11/28 06:50:52;;;;;;;8.70;2.80;;;4.00;99.90;;;;;;5095829;28;20040;-68
2023/11/28 06:53:19;;;;;;;7.65;3.25;;;4.00;99.90;;;;;;5095292;28;20067;-68
2023/11/28 06:55:46;;;;;;;13.48;3.65;;;4.00;99.90;;;;;;5095902;28;20163;-68
2023/11/28 06:58:13;;;;;;;9.20;3.03;;;4.00;99.90;;;;;;5095042;28;20067;-67
2023/11/28 07:00:39;;;;;;;9.75;2.95;;;4.00;99.90;;;;;;5095397;28;20040;-71
2023/11/28 07:03:06;;;;;;;8.77;2.63;;;3.90;99.90;;;;;;5095209;28;20040;-71
2023/11/28 07:05:33;;;;;;;12.48;3.60;;;3.90;99.90;;;;;;5095247;28;20036;-71
2023/11/28 07:08:01;;;;;;;12.93;3.22;;;3.90;99.90;;;;;;5093157;28;20382;-71
2023/11/28 07:10:28;;;;;;;11.73;2.85;;;3.90;99.90;;;;;;5095130;28;20093;-72
2023/11/28 07:12:55;;;;;;;12.73;3.33;;;3.90;99.90;;;;;;5095216;28;20040;-72
2023/11/28 07:15:22;;;;;;;9.95;2.70;;;3.90;99.90;;;;;;5095303;28;20046;-72
2023/11/28 07:17:49;;;;;;;9.40;3.00;;;3.80;99.90;;;;;;5093951;28;20055;-71
2023/11/28 07:20:16;;;;;;;11.18;3.00;;;3.90;99.90;;;;;;5094584;28;20124;-71
2023/11/28 07:22:43;;;;;;;9.43;3.00;;;3.80;99.90;;;;;;5094630;28;20035;-71
2023/11/28 07:25:10;;;;;;;8.90;3.05;;;3.80;99.90;;;;;;5093814;28;20036;-67
2023/11/28 07:27:36;;;;;;;11.45;3.15;;;3.80;99.90;;;;;;5093968;28;20047;-68
2023/11/28 07:30:03;;;;;;;10.85;3.05;;;3.80;99.90;;;;;;5095187;28;20526;-71
2023/11/28 07:32:30;;;;;;;10.77;3.60;;;3.80;99.90;;;;;;5095186;28;20074;-71
2023/11/28 07:34:57;;;;;;;14.05;3.95;;;3.80;99.90;;;;;;5094710;28;20044;-71
2023/11/28 07:37:24;;;;;;;12.05;3.35;;;3.80;99.90;;;;;;5094938;28;20048;-71
2023/11/28 07:39:50;;;;;;;11.63;3.10;;;3.80;99.90;;;;;;5093150;28;20093;-72
2023/11/28 07:42:17;;;;;;;10.20;4.20;;;3.80;99.90;;;;;;5092528;28;20046;-72
2023/11/28 07:44:44;;;;;;;10.35;3.67;;;3.80;99.90;;;;;;5093758;28;20047;-68
2023/11/28 07:47:11;;;;;;;11.63;3.75;;;3.80;99.90;;;;;;5088432;28;20082;-68
2023/11/28 07:49:42;;;;;;;7.35;3.55;;;3.70;99.90;;;;;;5093654;28;20051;-68
2023/11/28 07:52:09;;;;;;;9.88;4.03;;;3.70;99.90;;;;;;5092497;28;20093;-73
2023/11/28 07:54:36;;;;;;;14.07;5.50;;;3.70;99.90;;;;;;5089692;28;20036;-72
2023/11/28 07:57:03;;;;;;;17.17;7.07;;;3.70;99.90;;;;;;5073613;28;20055;-73
2023/11/28 07:59:30;;;;;;;21.30;8.93;;;3.70;99.90;;;;;;5073670;28;20108;-73
2023/11/28 08:01:56;;;;;;;14.90;6.07;;;3.70;99.90;;;;;;5073673;28;20109;-73
2023/11/28 08:04:23;;;;;;;17.45;4.95;;;3.70;99.90;;;;;;5072995;28;20136;-73
2023/11/28 08:06:50;;;;;;;12.35;4.00;;;3.70;99.90;;;;;;5073267;28;20036;-73
2023/11/28 08:09:17;;;;;;;8.27;3.22;;;3.70;99.90;;;;;;5073443;28;20481;-74
2023/11/28 08:11:44;;;;;;;9.35;3.60;;;3.70;99.90;;;;;;5073860;28;20048;-73
2023/11/28 08:14:11;;;;;;;9.35;3.20;;;3.60;99.90;;;;;;5072289;28;20052;-73
2023/11/28 08:16:46;;;;;;;15.27;3.00;;;3.60;99.90;;;;;;5079521;28;20040;-73
2023/11/28 08:19:13;;;;;;;10.20;3.47;;;3.60;99.90;;;;;;5080161;28;20043;-73
2023/11/28 08:21:40;;;;;;;7.53;3.00;;;3.60;99.90;;;;;;5072009;28;20028;-73
2023/11/28 08:24:07;;;;;;;11.43;3.03;;;3.60;99.90;;;;;;5073734;28;20044;-73
2023/11/28 08:26:33;;;;;;;9.95;3.30;;;3.70;99.90;;;;;;5073969;28;20394;-73
2023/11/28 08:29:00;;;;;;;8.00;3.45;;;3.60;99.90;;;;;;5075917;28;20041;-73
2023/11/28 08:31:27;;;;;;;8.90;2.75;;;3.70;99.90;;;;;;5080298;28;20116;-74
2023/11/28 08:33:54;;;;;;;10.85;3.05;;;3.70;99.90;;;;;;5085964;28;20032;-74
2023/11/28 08:36:20;;;;;;;9.98;3.08;;;3.70;99.90;;;;;;5074236;28;20036;-74
2023/11/28 08:38:47;;;;;;;11.05;2.72;;;3.70;99.90;;;;;;5072631;28;20131;-67
2023/11/28 08:41:14;;;;;;;6.53;2.70;;;3.70;99.90;;;;;;5073145;28;20094;-67
2023/11/28 08:43:42;;;;;;;13.23;2.85;;;3.70;99.90;;;;;;5073033;28;20041;-72
2023/11/28 08:46:09;;;;;;;10.60;3.15;;;3.80;99.90;;;;;;5074608;28;20119;-72
2023/11/28 08:48:36;;;;;;;13.93;3.50;;;3.80;99.90;;;;;;5092526;28;20044;-66
2023/11/28 08:51:03;;;;;;;8.52;2.55;;;3.80;99.90;;;;;;5080737;28;20579;-66
2023/11/28 08:53:29;;;;;;;12.30;3.38;;;3.80;99.90;;;;;;5072646;28;20447;-66
2023/11/28 08:55:56;;;;;;;10.48;3.25;;;3.80;99.90;;;;;;5077569;28;20044;-66
2023/11/28 08:58:23;;;;;;;12.93;3.30;;;3.80;99.90;;;;;;5092909;28;20119;-66
2023/11/28 09:00:53;;;;;;;9.90;3.55;;;3.80;99.90;;;;;;5092379;28;20441;-67
2023/11/28 09:03:20;;;;;;;10.13;4.32;;;3.90;99.90;;;;;;5093067;28;20036;-67
2023/11/28 09:05:47;;;;;;;9.27;3.70;;;3.90;99.90;;;;;;5074969;28;20528;-66
2023/11/28 09:08:14;;;;;;;9.57;3.67;;;3.80;99.90;;;;;;5073372;28;20094;-66
2023/11/28 09:10:41;;;;;;;10.25;4.38;;;3.80;99.90;;;;;;5073382;28;20048;-67
2023/11/28 09:13:08;;;;;;;12.98;4.50;;;3.90;99.90;;;;;;5082486;28;20077;-67
2023/11/28 09:15:35;;;;;;;10.95;3.92;;;3.90;99.90;;;;;;5088038;28;20066;-72
2023/11/28 09:18:01;;;;;;;10.18;4.00;;;3.90;99.90;;;;;;5072706;28;20124;-72
2023/11/28 09:20:28;;;;;;;9.00;3.60;;;4.00;99.90;;;;;;5072669;28;20040;-71
2023/11/28 09:22:55;;;;;;;12.85;4.07;;;4.00;99.90;;;;;;5077969;28;20486;-72
2023/11/28 09:25:22;;;;;;;15.63;4.00;;;4.10;99.90;;;;;;5083020;28;20040;-71
2023/11/28 09:27:49;;;;;;;11.27;3.45;;;4.10;99.90;;;;;;5092139;28;20048;-66
2023/11/28 09:30:17;;;;;;;10.60;4.22;;;4.10;99.90;;;;;;5091894;28;20048;-66
2023/11/28 09:32:44;;;;;;;9.52;3.45;;;4.20;99.90;;;;;;5095550;28;20043;-66
2023/11/28 09:35:12;;;;;;;15.88;4.03;;;4.20;99.90;;;;;;5095894;28;20048;-66
2023/11/28 09:37:39;;;;;;;10.43;3.60;;;4.30;99.90;;;;;;5095790;28;20040;-66
2023/11/28 09:40:06;;;;;;;10.80;3.75;;;4.30;99.90;;;;;;5095628;28;20040;-66
2023/11/28 09:42:32;;;;;;;10.18;3.70;;;4.40;99.90;;;;;;5095883;28;20093;-66
2023/11/28 09:44:59;;;;;;;11.50;3.55;;;4.40;99.90;;;;;;5095625;28;20036;-66
2023/11/28 09:47:26;;;;;;;10.15;3.30;;;4.40;99.90;;;;;;5095770;28;20044;-66
2023/11/28 09:49:53;;;;;;;10.93;3.42;;;4.50;99.90;;;;;;5095545;28;20040;-66
2023/11/28 09:52:20;;;;;;;11.30;3.15;;;4.50;99.90;;;;;;5095360;28;20032;-66
2023/11/28 09:54:48;;;;;;;11.05;3.03;;;4.50;99.90;;;;;;5095551;28;20381;-66
2023/11/28 09:57:14;;;;;;;9.80;3.03;;;4.60;99.90;;;;;;5095341;28;20067;-68
2023/11/28 09:59:41;;;;;;;11.13;3.00;;;4.60;99.90;;;;;;5095605;28;20036;-66
2023/11/28 10:02:13;;;;;;;10.48;3.10;;;4.70;99.90;;;;;;5095440;28;20477;-71
2023/11/28 10:04:40;;;;;;;10.95;3.60;;;4.70;99.90;;;;;;5095272;28;20036;-72
2023/11/28 10:07:07;;;;;;;9.00;3.17;;;4.70;99.90;;;;;;5095275;28;20044;-72
2023/11/28 10:09:34;;;;;;;10.30;3.00;;;4.80;99.90;;;;;;5094460;28;20061;-72
2023/11/28 10:12:00;;;;;;;12.00;3.20;;;4.80;99.90;;;;;;5095683;28;20048;-72
2023/11/28 10:14:27;;;;;;;10.70;3.40;;;4.80;99.90;;;;;;5091507;28;20101;-71
2023/11/28 10:16:54;;;;;;;10.52;3.22;;;4.90;99.90;;;;;;5083490;28;20447;-70
2023/11/28 10:19:21;;;;;;;11.10;3.60;;;4.90;99.90;;;;;;5095227;28;20408;-71
2023/11/28 10:21:51;;;;;;;12.40;3.35;;;4.90;99.90;;;;;;5093930;28;20428;-72
2023/11/28 10:24:18;;;;;;;9.27;3.80;;;5.00;99.90;;;;;;5095305;28;20119;-71
2023/11/28 10:26:46;;;;;;;9.27;3.25;;;5.10;99.90;;;;;;5095315;28;20040;-71
2023/11/28 10:29:13;;;;;;;8.98;3.00;;;5.10;99.90;;;;;;5081119;28;20040;-72
2023/11/28 10:31:40;;;;;;;14.05;3.33;;;5.10;99.90;;;;;;5075795;28;20040;-71
2023/11/28 10:34:10;;;;;;;12.75;3.40;;;5.10;99.90;;;;;;5075877;28;20117;-71
2023/11/28 10:36:37;;;;;;;11.02;3.95;;;5.20;99.90;;;;;;5075826;28;20074;-72
2023/11/28 10:39:04;;;;;;;9.75;3.45;;;5.20;99.90;;;;;;5075452;28;20079;-71
2023/11/28 10:41:31;;;;;;;9.27;2.92;;;5.30;99.90;;;;;;5074290;28;20036;-71
2023/11/28 10:43:58;;;;;;;12.95;3.67;;;5.40;99.90;;;;;;5074943;28;20044;-70
2023/11/28 10:46:25;;;;;;;8.82;3.65;;;5.40;99.90;;;;;;5081954;28;20036;-71
2023/11/28 10:48:52;;;;;;;6.65;3.13;;;5.40;99.90;;;;;;5075238;28;20102;-67
2023/11/28 10:51:19;;;;;;;8.25;2.72;;;5.50;99.90;;;;;;5084796;28;20043;-68
2023/11/28 10:53:45;;;;;;;11.82;4.20;;;5.50;99.90;;;;;;5094724;28;20080;-68
2023/11/28 10:56:12;;;;;;;8.85;3.10;;;5.50;99.90;;;;;;5092885;28;20493;-69
2023/11/28 10:58:39;;;;;;;9.07;3.13;;;5.60;99.90;;;;;;5089932;28;20041;-69
2023/11/28 11:01:06;;;;;;;5.85;2.60;;;5.50;99.90;;;;;;5094642;28;20115;-68
2023/11/28 11:03:33;;;;;;;9.05;2.60;;;5.60;99.90;;;;;;5074064;28;20075;-67
2023/11/28 11:06:00;;;;;;;9.00;2.97;;;5.60;99.90;;;;;;5073982;28;20377;-68
2023/11/28 11:08:27;;;;;;;11.45;3.10;;;5.60;99.90;;;;;;5089949;28;20600;-68
2023/11/28 11:10:54;;;;;;;9.02;3.17;;;5.60;99.90;;;;;;5094548;28;20118;-68
2023/11/28 11:13:22;;;;;;;12.90;4.78;;;5.70;99.90;;;;;;5078641;28;20049;-67
2023/11/28 11:15:49;;;;;;;8.90;4.07;;;5.70;99.90;;;;;;5074992;28;20055;-68
2023/11/28 11:18:15;;;;;;;9.15;3.28;;;5.80;99.90;;;;;;5082616;28;20047;-68
2023/11/28 11:20:42;;;;;;;7.10;2.70;;;5.80;99.90;;;;;;5094403;28;20059;-68
2023/11/28 11:23:09;;;;;;;10.27;3.00;;;5.80;99.90;;;;;;5089675;28;20419;-72
2023/11/28 11:25:36;;;;;;;11.18;3.20;;;5.80;99.90;;;;;;5093975;28;20054;-72
2023/11/28 11:28:03;;;;;;;8.55;2.38;;;5.90;99.90;;;;;;5087558;28;20396;-72
2023/11/28 11:30:32;;;;;;;6.43;3.00;;;5.90;99.90;;;;;;5093958;28;20097;-73
2023/11/28 11:32:58;;;;;;;11.40;3.33;;;5.90;99.90;;;;;;5085748;28;20063;-72
2023/11/28 11:35:26;;;;;;;7.80;2.67;;;5.90;99.90;;;;;;5074456;28;20052;-68
2023/11/28 11:37:52;;;;;;;16.98;3.67;;;6.00;99.90;;;;;;5072811;28;20044;-67
2023/11/28 11:40:19;;;;;;;9.38;2.25;;;6.00;99.90;;;;;;5074783;28;20452;-68
2023/11/28 11:42:46;;;;;;;6.53;2.42;;;6.00;99.90;;;;;;5092705;28;20040;-67
2023/11/28 11:45:14;;;;;;;7.43;2.28;;;6.10;99.90;;;;;;5075443;28;20037;-68
2023/11/28 11:47:41;;;;;;;8.45;2.42;;;6.10;99.90;;;;;;5074312;28;20044;-67
2023/11/28 11:50:09;;;;;;;6.65;1.33;;;6.10;99.90;;;;;;5072979;28;20047;-67
2023/11/28 11:52:38;;;;;;;9.73;2.00;;;6.10;99.90;;;;;;5073326;28;20045;-67
2023/11/28 11:55:05;;;;;;;10.57;1.80;;;6.20;99.90;;;;;;5072540;28;20381;-67
2023/11/28 11:57:32;;;;;;;12.27;2.00;;;6.20;99.90;;;;;;5085753;28;22397;-67
2023/11/28 11:59:59;;;;;;;8.88;2.10;;;6.20;99.90;;;;;;5092772;28;20052;-67
2023/11/28 12:02:26;;;;;;;4.72;1.27;;;6.30;99.90;;;;;;5092347;28;20153;-71
2023/11/28 12:04:53;;;;;;;8.13;1.50;;;6.20;99.90;;;;;;5073417;28;20044;-71
2023/11/28 12:07:20;;;;;;;6.93;2.03;;;6.20;99.90;;;;;;5072110;28;20040;-71
2023/11/28 12:09:47;;;;;;;9.30;2.58;;;6.30;99.90;;;;;;5086384;28;20067;-71
2023/11/28 12:12:14;;;;;;;8.23;1.77;;;6.30;99.90;;;;;;5073658;28;20098;-71
2023/11/28 12:14:41;;;;;;;6.75;1.40;;;6.30;99.90;;;;;;5073385;28;20041;-71
2023/11/28 12:17:07;;;;;;;4.63;1.05;;;6.30;99.90;;;;;;5073640;28;20076;-71
2023/11/28 12:19:35;;;;;;;5.85;1.33;;;6.30;99.90;;;;;;5093067;28;20036;-66
2023/11/28 12:22:04;;;;;;;5.55;1.60;;;6.30;99.90;;;;;;5073363;28;20046;-67
2023/11/28 12:24:31;;;;;;;4.95;1.52;;;6.40;99.90;;;;;;5073152;28;20042;-66
2023/11/28 12:26:58;;;;;;;6.50;1.67;;;6.40;99.90;;;;;;5073557;28;20055;-67
2023/11/28 12:29:25;;;;;;;4.95;1.52;;;6.40;99.90;;;;;;5073519;28;20547;-66
2023/11/28 12:31:51;;;;;;;6.45;2.17;;;6.50;99.90;;;;;;5080900;28;20083;-66
2023/11/28 12:34:18;;;;;;;8.65;1.98;;;6.50;99.90;;;;;;5072983;28;20048;-66
2023/11/28 12:36:45;;;;;;;8.18;1.98;;;6.50;99.90;;;;;;5079307;28;20109;-67
2023/11/28 12:39:12;;;;;;;7.35;2.45;;;6.50;99.90;;;;;;5087269;28;20051;-67
2023/11/28 12:41:40;;;;;;;6.88;1.70;;;6.50;99.90;;;;;;5092481;28;20043;-67
2023/11/28 12:44:07;;;;;;;5.60;1.40;;;6.50;99.90;;;;;;5092890;28;20040;-66
2023/11/28 12:46:34;;;;;;;7.85;1.83;;;6.50;99.90;;;;;;5091535;28;20044;-66
2023/11/28 12:49:00;;;;;;;8.77;2.20;;;6.40;99.90;;;;;;5092240;28;20150;-66
2023/11/28 12:51:27;;;;;;;7.20;2.10;;;6.40;99.90;;;;;;5092674;28;20044;-67